createdAt,value
2022-12-18T00:02:38.241Z,38.20
2022-12-18T00:06:41.097Z,47.88
2022-12-18T00:10:46.466Z,39.40
2022-12-18T00:14:49.144Z,38.83
2022-12-18T00:18:53.102Z,37.20
2022-12-18T00:22:56.183Z,38.80
2022-12-18T00:27:00.468Z,39.57
2022-12-18T00:31:04.020Z,38.87
2022-12-18T00:35:07.935Z,38.37
2022-12-18T00:39:12.603Z,45.03
2022-12-18T00:43:16.947Z,47.80
2022-12-18T00:47:19.624Z,43.17
2022-12-18T00:51:22.328Z,40.83
2022-12-18T00:55:25.032Z,41.40
2022-12-18T00:59:29.281Z,40.90
2022-12-18T01:03:32.244Z,41.23
2022-12-18T01:07:34.962Z,40.40
2022-12-18T01:11:37.615Z,41.90
2022-12-18T01:15:41.946Z,42.40
2022-12-18T01:19:44.596Z,40.23
2022-12-18T01:23:47.494Z,38.67
2022-12-18T01:27:50.184Z,39.27
2022-12-18T01:31:56.915Z,47.75
2022-12-18T01:35:59.608Z,41.30
2022-12-18T01:40:02.223Z,39.93
2022-12-18T01:44:38.002Z,39.07
2022-12-18T01:48:44.294Z,36.47
2022-12-18T01:52:49.348Z,36.80
2022-12-18T01:56:52.004Z,36.03
2022-12-18T02:00:56.549Z,35.77
2022-12-18T02:05:00.745Z,36.37
2022-12-18T02:09:12.420Z,34.73
2022-12-18T02:13:19.141Z,33.17
2022-12-18T02:17:23.864Z,35.13
2022-12-18T02:21:34.299Z,35.57
2022-12-18T02:25:56.445Z,37.53
2022-12-18T02:30:01.807Z,43.80
2022-12-18T02:34:06.238Z,38.00
2022-12-18T02:38:09.178Z,37.83
2022-12-18T02:42:14.604Z,37.73
2022-12-18T02:46:33.595Z,35.43
2022-12-18T02:50:38.393Z,33.70
2022-12-18T02:54:51.449Z,30.87
2022-12-18T02:59:00.572Z,31.17
2022-12-18T03:03:07.629Z,37.50
2022-12-18T03:07:12.800Z,30.77
2022-12-18T03:11:16.262Z,28.57
2022-12-18T03:15:23.369Z,28.00
2022-12-18T03:19:28.753Z,28.53
2022-12-18T03:23:35.192Z,29.63
2022-12-18T03:27:39.829Z,29.13
2022-12-18T03:31:47.489Z,30.17
2022-12-18T03:35:50.205Z,28.70
2022-12-18T03:39:53.088Z,29.67
2022-12-18T03:43:59.659Z,31.20
2022-12-18T03:48:06.348Z,29.80
2022-12-18T03:52:11.735Z,29.40
2022-12-18T03:56:16.005Z,31.70
2022-12-18T04:00:21.504Z,30.27
2022-12-18T04:04:27.141Z,32.57
2022-12-18T04:08:30.520Z,31.10
2022-12-18T04:12:33.169Z,32.23
2022-12-18T04:16:36.068Z,30.50
2022-12-18T04:20:40.187Z,28.77
2022-12-18T04:24:42.928Z,30.10
2022-12-18T04:28:45.744Z,28.93
2022-12-18T04:32:52.173Z,29.50
2022-12-18T04:36:56.710Z,27.50
2022-12-18T04:41:00.020Z,25.10
2022-12-18T04:45:03.000Z,23.67
2022-12-18T04:49:05.799Z,22.87
2022-12-18T04:53:10.169Z,22.33
2022-12-18T04:57:13.049Z,22.07
2022-12-18T05:01:17.774Z,22.40
2022-12-18T05:05:20.623Z,20.67
2022-12-18T05:09:25.501Z,20.70
2022-12-18T05:13:28.273Z,21.30
2022-12-18T05:17:31.079Z,20.63
2022-12-18T05:21:34.056Z,20.37
2022-12-18T05:25:38.343Z,19.77
2022-12-18T05:29:41.038Z,20.83
2022-12-18T05:33:44.433Z,21.47
2022-12-18T05:37:47.285Z,21.20
2022-12-18T05:41:51.605Z,20.20
2022-12-18T05:45:54.604Z,19.20
2022-12-18T05:49:57.387Z,19.77
2022-12-18T05:54:00.104Z,20.23
2022-12-18T05:58:04.539Z,19.63
2022-12-18T06:02:07.481Z,19.90
2022-12-18T06:06:16.908Z,19.73
2022-12-18T06:10:19.847Z,20.10
2022-12-18T06:14:23.889Z,19.87
2022-12-18T06:18:26.656Z,20.87
2022-12-18T06:22:29.929Z,20.10
2022-12-18T06:26:32.655Z,19.80
2022-12-18T06:30:37.328Z,20.73
2022-12-18T06:34:40.363Z,20.70
2022-12-18T06:38:44.706Z,20.03
2022-12-18T06:42:47.857Z,20.27
2022-12-18T06:46:52.110Z,19.53
2022-12-18T06:50:55.560Z,19.87
2022-12-18T06:54:58.207Z,19.27
2022-12-18T06:59:01.183Z,20.73
2022-12-18T07:03:05.365Z,19.30
2022-12-18T07:07:08.069Z,21.13
2022-12-18T07:11:10.801Z,19.73
2022-12-18T07:15:13.547Z,19.30
2022-12-18T07:19:17.553Z,19.93
2022-12-18T07:23:20.244Z,19.07
2022-12-18T07:27:23.869Z,20.10
2022-12-18T07:31:27.433Z,20.57
2022-12-18T07:35:31.892Z,19.93
2022-12-18T07:39:34.814Z,20.20
2022-12-18T07:43:38.848Z,21.27
2022-12-18T07:47:42.553Z,20.87
2022-12-18T07:51:50.034Z,20.07
2022-12-18T07:56:25.599Z,20.93
2022-12-18T08:00:20.234Z,21.27
2022-12-18T08:04:24.099Z,21.93
2022-12-18T08:08:28.279Z,22.87
2022-12-18T08:12:30.928Z,24.73
2022-12-18T08:16:33.701Z,21.70
2022-12-18T08:20:36.432Z,21.27
2022-12-18T08:24:40.526Z,23.57
2022-12-18T08:28:43.782Z,24.93
2022-12-18T08:32:46.651Z,23.23
2022-12-18T08:36:49.599Z,22.63
2022-12-18T08:41:00.198Z,21.40
2022-12-18T08:45:02.956Z,22.20
2022-12-18T08:49:06.249Z,22.53
2022-12-18T08:53:09.526Z,25.40
2022-12-18T08:57:13.575Z,21.00
2022-12-18T09:01:16.688Z,21.63
2022-12-18T09:05:19.490Z,23.33
2022-12-18T09:09:22.302Z,26.27
2022-12-18T09:13:26.486Z,23.47
2022-12-18T09:17:29.469Z,22.17
2022-12-18T09:21:35.961Z,21.83
2022-12-18T09:25:39.955Z,20.90
2022-12-18T09:29:43.963Z,21.80
2022-12-18T09:33:47.025Z,22.00
2022-12-18T09:37:49.763Z,21.73
2022-12-18T09:41:55.807Z,24.23
2022-12-18T09:46:03.831Z,21.23
2022-12-18T09:50:17.507Z,19.97
2022-12-18T09:54:24.249Z,20.63
2022-12-18T09:58:30.123Z,20.37
2022-12-18T10:02:34.620Z,21.17
2022-12-18T10:06:41.422Z,22.17
2022-12-18T10:10:49.160Z,20.63
2022-12-18T10:14:55.595Z,21.70
2022-12-18T10:19:06.295Z,20.17
2022-12-18T10:23:16.845Z,19.97
2022-12-18T10:27:29.534Z,18.93
2022-12-18T10:31:32.549Z,19.23
2022-12-18T10:35:37.976Z,19.77
2022-12-18T10:39:41.166Z,19.30
2022-12-18T10:43:44.287Z,18.43
2022-12-18T10:47:49.299Z,18.33
2022-12-18T10:51:54.100Z,17.87
2022-12-18T10:55:59.089Z,19.43
2022-12-18T11:00:20.728Z,19.43
2022-12-18T11:04:25.611Z,20.83
2022-12-18T11:08:29.962Z,19.50
2022-12-18T11:12:32.751Z,18.67
2022-12-18T11:16:37.271Z,18.47
2022-12-18T11:20:41.546Z,18.70
2022-12-18T11:25:22.368Z,19.80
2022-12-18T11:29:20.034Z,20.00
2022-12-18T11:33:24.684Z,20.27
2022-12-18T11:37:27.799Z,19.93
2022-12-18T11:41:52.508Z,19.67
2022-12-18T11:45:57.199Z,16.93
2022-12-18T11:50:03.755Z,18.93
2022-12-18T11:54:13.820Z,17.97
2022-12-18T11:58:31.850Z,17.63
2022-12-18T12:02:48.822Z,18.87
2022-12-18T12:07:03.113Z,17.93
2022-12-18T12:11:11.619Z,22.23
2022-12-18T12:15:25.811Z,19.33
2022-12-18T12:19:38.165Z,19.03
2022-12-18T12:23:45.287Z,20.40
2022-12-18T12:27:52.939Z,26.03
2022-12-18T12:32:07.085Z,19.43
2022-12-18T12:36:16.050Z,24.03
2022-12-18T12:40:50.280Z,17.87
2022-12-18T12:44:51.253Z,18.53
2022-12-18T12:49:03.138Z,17.43
2022-12-18T12:53:10.087Z,18.03
2022-12-18T12:57:17.721Z,22.63
2022-12-18T13:01:28.941Z,18.50
2022-12-18T13:05:36.949Z,17.07
2022-12-18T13:10:23.786Z,17.47
2022-12-18T13:14:32.244Z,16.97
2022-12-18T13:18:35.210Z,16.47
2022-12-18T13:22:40.712Z,16.50
2022-12-18T13:26:43.976Z,16.90
2022-12-18T13:30:52.710Z,16.43
2022-12-18T13:35:37.570Z,17.13
2022-12-18T13:39:42.026Z,17.40
2022-12-18T13:43:46.597Z,17.60
2022-12-18T13:47:49.607Z,19.50
2022-12-18T13:51:54.697Z,22.73
2022-12-18T13:55:58.937Z,24.67
2022-12-18T14:00:25.687Z,29.53
2022-12-18T14:04:30.557Z,26.37
2022-12-18T14:08:40.391Z,20.43
2022-12-18T14:13:01.139Z,26.57
2022-12-18T14:17:11.315Z,23.20
2022-12-18T14:21:20.902Z,20.10
2022-12-18T14:25:25.549Z,19.17
2022-12-18T14:29:31.570Z,19.07
2022-12-18T14:33:34.398Z,17.73
2022-12-18T14:37:37.197Z,16.77
2022-12-18T14:41:40.021Z,18.57
2022-12-18T14:45:45.677Z,18.40
2022-12-18T14:49:48.771Z,18.43
2022-12-18T14:53:56.624Z,17.80
2022-12-18T14:57:59.964Z,18.73
2022-12-18T15:02:06.882Z,20.93
2022-12-18T15:06:21.456Z,21.57
2022-12-18T15:10:27.036Z,18.93
2022-12-18T15:14:40.794Z,22.17
2022-12-18T15:18:48.892Z,23.70
2022-12-18T15:22:51.680Z,19.70
2022-12-18T15:26:54.520Z,18.30
2022-12-18T15:31:06.442Z,19.80
2022-12-18T15:35:16.865Z,18.27
2022-12-18T15:39:19.680Z,18.40
2022-12-18T15:43:38.913Z,20.47
2022-12-18T15:47:42.639Z,18.80
2022-12-18T15:51:53.871Z,19.20
2022-12-18T15:56:14.285Z,21.00
2022-12-18T16:00:17.987Z,20.10
2022-12-18T16:04:22.386Z,20.13
2022-12-18T16:08:26.763Z,20.60
2022-12-18T16:12:29.603Z,20.60
2022-12-18T16:16:32.366Z,20.33
2022-12-18T16:20:35.180Z,21.63
2022-12-18T16:24:39.914Z,22.10
2022-12-18T16:28:48.236Z,21.33
2022-12-18T16:32:51.375Z,21.23
2022-12-18T16:36:54.339Z,19.47
2022-12-18T16:41:15.792Z,19.37
2022-12-18T16:45:20.309Z,17.67
2022-12-18T16:49:23.490Z,17.27
2022-12-18T16:53:34.240Z,18.77
2022-12-18T16:57:39.315Z,19.90
2022-12-18T17:01:42.745Z,19.73
2022-12-18T17:05:50.076Z,19.43
2022-12-18T17:09:55.699Z,19.50
2022-12-18T17:14:00.120Z,19.40
2022-12-18T17:18:04.510Z,20.77
2022-12-18T17:22:08.231Z,27.10
2022-12-18T17:26:12.054Z,29.70
2022-12-18T17:30:16.630Z,21.77
2022-12-18T17:34:19.451Z,29.27
2022-12-18T17:38:22.249Z,39.10
2022-12-18T17:42:26.316Z,20.67
2022-12-18T17:46:32.392Z,20.60
2022-12-18T17:50:35.825Z,20.00
2022-12-18T17:54:41.355Z,20.53
2022-12-18T17:58:44.595Z,19.90
2022-12-18T18:02:49.115Z,20.77
2022-12-18T18:06:51.993Z,20.63
2022-12-18T18:11:16.874Z,19.80
2022-12-18T18:15:20.320Z,21.97
2022-12-18T18:19:25.476Z,20.87
2022-12-18T18:23:31.152Z,21.37
2022-12-18T18:27:38.508Z,21.20
2022-12-18T18:31:42.408Z,19.63
2022-12-18T18:35:54.892Z,21.47
2022-12-18T18:39:57.898Z,22.97
2022-12-18T18:44:01.003Z,23.77
2022-12-18T18:48:03.697Z,19.60
2022-12-18T18:52:08.300Z,21.57
2022-12-18T19:00:35.680Z,22.83
2022-12-18T19:04:46.353Z,19.47
2022-12-18T19:08:54.282Z,22.07
2022-12-18T19:13:14.505Z,25.70
2022-12-18T19:17:17.415Z,21.23
2022-12-18T19:21:20.590Z,20.90
2022-12-18T19:25:37.141Z,26.05
2022-12-18T19:29:43.764Z,21.43
2022-12-18T19:33:48.023Z,24.80
2022-12-18T19:37:50.766Z,22.30
2022-12-18T19:41:54.935Z,21.63
2022-12-18T19:45:57.765Z,29.20
2022-12-18T19:50:00.679Z,22.30
2022-12-18T19:54:03.858Z,38.30
2022-12-18T19:58:08.484Z,20.57
2022-12-18T20:02:13.548Z,19.33
2022-12-18T20:06:22.541Z,22.37
2022-12-18T20:10:27.476Z,19.87
2022-12-18T20:14:31.743Z,20.40
2022-12-18T20:18:34.604Z,21.13
2022-12-18T20:22:37.566Z,21.63
2022-12-18T20:26:40.722Z,19.27
2022-12-18T20:30:45.310Z,19.23
2022-12-18T20:34:48.311Z,19.80
2022-12-18T20:38:57.287Z,19.23
2022-12-18T20:43:03.307Z,20.27
2022-12-18T20:47:08.825Z,19.27
2022-12-18T20:51:13.687Z,19.20
2022-12-18T20:55:19.493Z,19.03
2022-12-18T20:59:25.851Z,19.57
2022-12-18T21:03:30.518Z,18.50
2022-12-18T21:07:33.327Z,19.53
2022-12-18T21:11:53.680Z,17.70
2022-12-18T21:15:56.484Z,18.40
2022-12-18T21:20:01.514Z,18.93
2022-12-18T21:24:04.803Z,17.97
2022-12-18T21:28:07.520Z,18.13
2022-12-18T21:32:11.151Z,17.00
2022-12-18T21:36:15.356Z,19.23
2022-12-18T21:40:18.404Z,17.03
2022-12-18T21:44:21.405Z,16.70
2022-12-18T21:48:24.073Z,16.47
2022-12-18T21:52:31.519Z,21.07
2022-12-18T21:56:45.876Z,18.57
2022-12-18T22:00:48.925Z,16.33
2022-12-18T22:04:51.764Z,16.50
2022-12-18T22:09:00.329Z,16.90
2022-12-18T22:13:03.842Z,16.53
2022-12-18T22:17:07.073Z,23.05
2022-12-18T22:21:28.791Z,18.33
2022-12-18T22:25:33.531Z,17.20
2022-12-18T22:29:55.784Z,17.57
2022-12-18T22:33:58.552Z,17.67
2022-12-18T22:38:01.402Z,17.03
2022-12-18T22:42:07.303Z,17.07
2022-12-18T22:46:12.972Z,17.23
2022-12-18T22:50:15.821Z,16.90
2022-12-18T22:54:18.704Z,17.50
2022-12-18T22:58:22.721Z,18.20
2022-12-18T23:02:25.942Z,18.20
2022-12-18T23:06:29.281Z,17.17
2022-12-18T23:10:32.006Z,18.10
2022-12-18T23:14:36.316Z,17.37
2022-12-18T23:18:39.031Z,17.10
2022-12-18T23:22:42.022Z,18.57
2022-12-18T23:26:44.832Z,17.03
2022-12-18T23:30:48.893Z,17.17
2022-12-18T23:34:51.547Z,18.77
2022-12-18T23:38:55.812Z,16.93
2022-12-18T23:42:59.615Z,17.47
2022-12-18T23:47:03.711Z,18.73
2022-12-18T23:51:08.563Z,17.80
2022-12-18T23:55:11.266Z,18.20
2022-12-18T23:59:14.109Z,17.87
